Time;durP1;ratioP1;P1;durP2;ratioP2;P2;SDS_P1;SDS_P2;PMS_P1;PMS_P2;Temp;Humidity;BMP_temperature;BMP_pressure;BME280_temperature;BME280_humidity;BME280_pressure;Samples;Min_cycle;Max_cycle;Signal;HPM_P1;HPM_P2
2022/10/31 00:01:33;;;;;;;24.42;12.32;;;;;;;17.37;66.78;101836.66;4936917;28;19925;-81
2022/10/31 00:04:08;;;;;;;21.40;12.38;;;;;;;17.39;66.43;101855.31;4933929;28;20507;-80
2022/10/31 00:06:35;;;;;;;24.42;12.10;;;;;;;17.36;66.46;101842.19;4931813;28;20043;-80
2022/10/31 00:09:04;;;;;;;25.33;12.13;;;;;;;17.29;65.79;101809.75;4933958;28;20520;-79
2022/10/31 00:11:31;;;;;;;23.83;12.38;;;;;;;17.40;66.56;101848.94;4918751;28;20372;-80
2022/10/31 00:13:59;;;;;;;20.98;12.52;;;;;;;17.41;66.58;101862.22;4913893;29;20430;-80
2022/10/31 00:16:33;;;;;;;21.38;12.63;;;;;;;17.32;66.42;101824.69;4913328;29;20404;-78
2022/10/31 00:19:06;;;;;;;22.08;12.40;;;;;;;17.33;66.19;101831.75;4931243;28;20437;-79
2022/10/31 00:21:34;;;;;;;20.90;11.80;;;;;;;17.56;65.65;101856.34;4912364;29;20377;-79
2022/10/31 00:24:04;;;;;;;21.15;12.80;;;;;;;17.22;66.16;101825.59;4911932;29;20051;-80
2022/10/31 00:26:31;;;;;;;19.38;11.48;;;;;;;17.38;66.57;101861.66;4915429;29;20059;-80
2022/10/31 00:29:00;;;;;;;22.48;11.85;;;;;;;17.24;66.47;101845.06;4910483;29;20575;-79
2022/10/31 00:31:33;;;;;;;21.98;12.63;;;;;;;17.25;67.58;101860.16;4907467;29;20051;-79
2022/10/31 00:34:03;;;;;;;17.98;12.25;;;;;;;17.19;67.69;101862.63;4889611;29;20110;-80
2022/10/31 00:36:30;;;;;;;21.98;11.50;;;;;;;16.88;67.50;101825.34;4913673;29;20129;-80
2022/10/31 00:38:58;;;;;;;19.23;12.50;;;;;;;17.08;67.42;101853.75;4890690;29;20600;-79
2022/10/31 00:41:26;;;;;;;20.02;12.63;;;;;;;17.08;67.31;101855.59;4894128;29;20527;-79
2022/10/31 00:43:54;;;;;;;18.83;11.07;;;;;;;17.07;67.00;101832.47;4893274;29;20055;-80
2022/10/31 00:46:21;;;;;;;22.38;11.93;;;;;;;17.06;66.41;101822.72;4890669;29;20371;-81
2022/10/31 00:48:47;;;;;;;22.17;12.20;;;;;;;16.97;66.61;101821.78;4906638;28;21024;-79
2022/10/31 00:51:18;;;;;;;18.95;11.48;;;;;;;17.16;67.17;101855.72;4931009;28;20591;-79
2022/10/31 00:53:52;;;;;;;18.27;11.57;;;;;;;16.87;67.32;101824.50;4927238;28;20061;-80
2022/10/31 00:56:23;;;;;;;17.10;11.50;;;;;;;16.83;67.61;101820.41;4931949;28;20169;-80
2022/10/31 00:58:54;;;;;;;27.55;12.05;;;;;;;16.76;67.49;101813.94;4933041;28;20309;-80
2022/10/31 01:01:21;;;;;;;23.92;11.75;;;;;;;16.86;68.12;101846.94;4924382;28;20117;-80
2022/10/31 01:03:48;;;;;;;18.65;11.70;;;;;;;16.96;67.95;101864.84;4928888;28;21008;-80
2022/10/31 01:06:15;;;;;;;20.08;11.43;;;;;;;16.91;67.49;101853.72;4934388;28;20193;-79
2022/10/31 01:08:43;;;;;;;15.77;10.48;;;;;;;16.40;68.04;101776.25;4926743;28;20143;-78
2022/10/31 01:11:12;;;;;;;18.40;10.45;;;;;;;16.86;67.70;101857.66;4911427;28;20468;-80
2022/10/31 01:13:40;;;;;;;20.25;10.27;;;;;;;16.78;67.26;101849.53;4907449;29;20131;-80
2022/10/31 01:16:13;;;;;;;17.95;10.55;;;;;;;16.79;67.04;101851.19;4895940;29;20754;-81
2022/10/31 01:18:43;;;;;;;16.65;9.25;;;;;;;16.18;67.06;101755.16;4905223;29;20507;-80
2022/10/31 01:21:16;;;;;;;19.50;9.80;;;;;;;16.68;67.16;101848.69;4912972;29;20437;-79
2022/10/31 01:23:43;;;;;;;22.33;10.63;;;;;;;16.45;66.83;101810.66;4910760;28;20300;-80
2022/10/31 01:26:14;;;;;;;15.52;9.18;;;;;;;16.51;66.93;101814.59;4904926;29;20074;-80
2022/10/31 01:28:53;;;;;;;15.82;9.80;;;;;;;16.66;67.16;101847.97;4907657;29;20594;-77
2022/10/31 01:31:26;;;;;;;12.88;8.63;;;;;;;16.55;66.85;101832.91;4912426;29;20170;-79
2022/10/31 01:33:54;;;;;;;16.08;9.80;;;;;;;16.66;66.91;101850.66;4903924;29;20146;-79
2022/10/31 01:36:33;;;;;;;14.43;9.43;;;;;;;16.64;66.73;101852.63;4920477;28;20435;-79
2022/10/31 01:39:06;;;;;;;25.13;9.57;;;;;;;16.59;66.61;101849.56;4905713;29;20059;-78
2022/10/31 01:41:38;;;;;;;12.57;8.55;;;;;;;15.95;66.27;101747.47;4902496;28;20126;-79
2022/10/31 01:44:13;;;;;;;19.02;8.82;;;;;;;16.54;66.67;101847.31;4912589;29;20062;-81
2022/10/31 01:47:05;;;;;;;14.57;8.50;;;;;;;16.35;66.46;101824.06;4903534;29;20090;-80
2022/10/31 01:49:38;;;;;;;18.63;8.63;;;;;;;16.09;66.58;101772.09;4914294;28;20142;-78
2022/10/31 01:52:16;;;;;;;10.90;8.20;;;;;;;16.35;66.62;101821.38;4924977;29;20059;-80
2022/10/31 01:55:11;;;;;;;16.63;8.63;;;;;;;16.29;66.40;101811.25;4921228;29;20061;-78
2022/10/31 01:57:46;;;;;;;14.40;8.32;;;;;;;16.17;66.09;101791.00;4920192;29;20062;-81
2022/10/31 02:00:18;;;;;;;16.02;8.30;;;;;;;16.51;65.41;101844.09;4915450;29;20498;-81
2022/10/31 02:02:49;;;;;;;11.00;7.90;;;;;;;16.34;66.27;101814.34;4927344;29;20051;-80
2022/10/31 02:05:19;;;;;;;13.20;8.20;;;;;;;16.21;66.09;101797.72;4928486;28;20051;-78
2022/10/31 02:07:58;;;;;;;16.45;7.63;;;;;;;16.51;66.27;101838.72;4938561;28;20051;-78
2022/10/31 02:10:25;;;;;;;14.23;8.30;;;;;;;15.98;66.36;101762.41;4946600;28;20123;-79
2022/10/31 02:12:55;;;;;;;18.67;8.07;;;;;;;16.24;65.91;101805.50;4954676;29;20134;-78
2022/10/31 02:15:22;;;;;;;15.38;8.85;;;;;;;16.34;65.96;101818.88;4950586;28;20039;-78
2022/10/31 02:17:49;;;;;;;13.93;7.88;;;;;;;16.46;65.98;101841.84;4926765;29;20078;-80
2022/10/31 02:20:21;;;;;;;13.13;7.72;;;;;;;16.38;65.97;101820.25;4923095;29;20073;-81
2022/10/31 02:23:09;;;;;;;16.55;8.35;;;;;;;16.43;66.09;101834.94;4921270;29;20052;-81
2022/10/31 02:26:05;;;;;;;12.88;7.57;;;;;;;16.43;66.07;101832.25;4921080;29;20055;-80
2022/10/31 02:28:59;;;;;;;15.93;8.32;;;;;;;16.42;66.04;101840.44;4922617;28;20128;-79
2022/10/31 02:31:46;;;;;;;13.48;7.55;;;;;;;16.28;66.28;101817.59;4922674;29;20446;-80
2022/10/31 02:34:19;;;;;;;21.92;7.97;;;;;;;16.39;66.39;101832.69;4921899;29;20122;-81
2022/10/31 02:36:45;;;;;;;14.88;7.43;;;;;;;16.40;66.12;101837.03;4923989;29;20255;-80
2022/10/31 02:39:23;;;;;;;10.95;7.30;;;;;;;16.21;65.85;101808.44;4920900;29;20051;-80
2022/10/31 02:42:20;;;;;;;11.95;7.53;;;;;;;16.36;65.79;101838.31;4922302;28;20055;-80
2022/10/31 02:45:07;;;;;;;15.32;7.80;;;;;;;16.33;65.85;101833.25;4919735;29;20154;-81
2022/10/31 02:47:37;;;;;;;15.20;8.05;;;;;;;16.28;65.94;101831.00;4920602;28;20158;-81
2022/10/31 02:50:22;;;;;;;11.13;7.03;;;;;;;15.51;65.94;101703.34;4939518;28;20062;-79
2022/10/31 02:52:54;;;;;;;18.02;8.63;;;;;;;16.25;65.58;101836.66;4940454;28;20338;-79
2022/10/31 02:55:27;;;;;;;11.48;7.78;;;;;;;15.91;65.37;101763.97;4939161;28;20468;-81
2022/10/31 02:58:01;;;;;;;15.20;8.27;;;;;;;16.33;66.04;101834.09;4943825;28;20421;-79
2022/10/31 03:00:37;;;;;;;20.33;8.73;;;;;;;16.30;65.68;101828.19;4938638;28;20141;-80
2022/10/31 03:03:19;;;;;;;13.30;7.65;;;;;;;16.31;65.71;101829.84;4937743;28;20063;-80
2022/10/31 03:06:03;;;;;;;14.55;8.18;;;;;;;16.27;65.80;101829.31;4941695;28;20059;-80
2022/10/31 03:08:56;;;;;;;15.98;8.30;;;;;;;16.22;66.02;101821.72;4942302;28;20479;-80
2022/10/31 03:11:33;;;;;;;12.02;8.13;;;;;;;15.92;65.39;101771.00;4928197;28;20062;-79
2022/10/31 03:14:03;;;;;;;14.25;8.50;;;;;;;16.29;65.57;101842.56;4923447;29;20228;-81
2022/10/31 03:17:02;;;;;;;14.07;7.43;;;;;;;16.27;66.10;101839.19;4922418;28;20055;-80
2022/10/31 03:19:36;;;;;;;13.68;8.00;;;;;;;16.21;65.67;101832.56;4914321;29;20284;-80
2022/10/31 03:22:15;;;;;;;21.27;8.48;;;;;;;16.05;65.84;101808.22;4922767;28;20328;-80
2022/10/31 03:24:45;;;;;;;14.05;8.00;;;;;;;16.28;65.69;101847.06;4920374;29;20396;-79
2022/10/31 03:27:16;;;;;;;16.60;8.43;;;;;;;16.08;65.66;101823.97;4925870;28;20078;-80
2022/10/31 03:29:44;;;;;;;12.13;7.18;;;;;;;16.12;65.57;101828.91;4922072;29;20435;-80
2022/10/31 03:32:25;;;;;;;11.30;7.43;;;;;;;16.18;65.57;101846.25;4935734;28;20055;-80
2022/10/31 03:34:57;;;;;;;14.93;7.40;;;;;;;16.15;65.77;101849.22;4920410;29;20055;-79
2022/10/31 03:37:27;;;;;;;11.38;7.82;;;;;;;15.92;65.68;101804.00;4918581;29;20110;-80
2022/10/31 03:39:57;;;;;;;14.38;7.57;;;;;;;16.02;65.89;101822.72;4920573;29;20307;-81
2022/10/31 03:42:31;;;;;;;11.93;7.25;;;;;;;16.15;66.21;101841.19;4921462;28;20051;-80
2022/10/31 03:45:03;;;;;;;12.20;7.53;;;;;;;16.24;66.13;101856.41;4922135;29;20047;-81
2022/10/31 03:47:31;;;;;;;14.00;7.32;;;;;;;15.85;65.62;101794.84;4921921;29;20166;-80
2022/10/31 03:49:58;;;;;;;13.50;7.70;;;;;;;16.13;65.76;101837.78;4934921;28;20085;-80
2022/10/31 03:52:34;;;;;;;13.10;6.78;;;;;;;16.24;66.15;101864.44;4938469;28;20109;-79
2022/10/31 03:55:12;;;;;;;13.27;7.53;;;;;;;16.21;65.61;101856.66;4938589;28;20521;-80
2022/10/31 03:57:56;;;;;;;15.02;7.47;;;;;;;16.18;65.34;101862.31;4938943;28;20080;-81
2022/10/31 04:00:23;;;;;;;13.85;7.95;;;;;;;15.95;65.12;101824.28;4938283;28;20078;-80
2022/10/31 04:03:00;;;;;;;12.68;8.30;;;;;;;16.14;65.04;101850.19;4938784;28;20063;-78
2022/10/31 04:05:29;;;;;;;18.88;8.02;;;;;;;16.14;65.38;101850.19;4940650;28;20540;-80
2022/10/31 04:07:59;;;;;;;12.95;7.20;;;;;;;15.80;65.30;101786.34;4940144;28;20447;-81
2022/10/31 04:10:28;;;;;;;13.98;6.93;;;;;;;16.07;65.32;101833.00;4928299;28;20099;-78
2022/10/31 04:13:09;;;;;;;15.82;7.93;;;;;;;16.16;65.12;101848.22;4915859;29;20825;-80
2022/10/31 04:15:38;;;;;;;13.07;7.20;;;;;;;16.13;65.04;101843.16;4913648;29;20273;-78
2022/10/31 04:18:05;;;;;;;12.63;7.03;;;;;;;15.78;64.83;101791.88;4918063;29;20118;-81
2022/10/31 04:20:38;;;;;;;11.30;6.38;;;;;;;15.91;65.08;101802.28;4919051;29;20054;-80
2022/10/31 04:23:13;;;;;;;12.48;6.85;;;;;;;16.17;64.95;101839.22;4914535;29;20480;-80
2022/10/31 04:25:40;;;;;;;17.80;7.55;;;;;;;16.03;65.24;101822.56;4920248;29;20058;-79
2022/10/31 04:28:07;;;;;;;10.52;7.10;;;;;;;15.83;64.98;101794.13;4922153;28;20557;-81
2022/10/31 04:30:34;;;;;;;14.38;7.25;;;;;;;16.01;64.24;101823.69;4919530;28;20258;-79
2022/10/31 04:33:01;;;;;;;15.18;7.72;;;;;;;16.08;64.69;101843.56;4918463;29;20079;-79
2022/10/31 04:35:28;;;;;;;10.20;7.40;;;;;;;15.97;65.34;101828.50;4917496;29;20550;-80
2022/10/31 04:37:55;;;;;;;12.35;6.93;;;;;;;16.12;65.07;101849.50;4920012;29;20588;-79
2022/10/31 04:40:25;;;;;;;10.13;6.35;;;;;;;15.73;64.94;101787.94;4914248;29;20059;-80
2022/10/31 04:42:51;;;;;;;13.13;6.90;;;;;;;15.87;65.27;101816.94;4917853;29;20412;-79
2022/10/31 04:45:21;;;;;;;9.77;6.57;;;;;;;15.98;65.06;101838.22;4918905;29;20055;-79
2022/10/31 04:47:48;;;;;;;15.50;7.25;;;;;;;15.96;65.09;101842.88;4916660;29;20523;-80
2022/10/31 04:50:19;;;;;;;10.52;6.65;;;;;;;15.96;65.47;101847.38;4917842;29;20059;-78
2022/10/31 04:52:46;;;;;;;12.70;6.35;;;;;;;15.51;64.81;101779.16;4935032;28;20051;-80
2022/10/31 04:55:14;;;;;;;12.98;6.65;;;;;;;15.71;65.27;101808.66;4918767;29;20055;-78
2022/10/31 04:57:42;;;;;;;10.13;6.40;;;;;;;15.98;64.63;101861.50;4918583;29;20626;-79
2022/10/31 05:00:10;;;;;;;12.32;6.43;;;;;;;15.93;64.76;101847.69;4918831;29;20062;-78
2022/10/31 05:02:44;;;;;;;11.40;6.75;;;;;;;15.78;64.59;101828.50;4914223;29;20108;-78
2022/10/31 05:05:13;;;;;;;18.38;6.65;;;;;;;15.95;65.04;101840.34;4920029;29;20469;-79
2022/10/31 05:07:41;;;;;;;14.73;8.70;;;;;;;15.99;64.88;101853.28;4920971;29;20154;-79
2022/10/31 05:10:14;;;;;;;11.35;6.90;;;;;;;15.91;65.04;101838.94;4921431;29;20066;-80
2022/10/31 05:12:51;;;;;;;14.90;6.55;;;;;;;15.85;65.18;101832.31;4919760;29;20266;-80
2022/10/31 05:15:20;;;;;;;12.57;6.45;;;;;;;15.80;65.18;101827.38;4921488;29;20073;-80
2022/10/31 05:17:48;;;;;;;12.70;5.93;;;;;;;15.98;65.35;101854.28;4919431;29;20439;-79
2022/10/31 05:20:18;;;;;;;14.60;7.10;;;;;;;15.95;65.41;101853.75;4921172;28;20063;-78
2022/10/31 05:22:51;;;;;;;14.25;7.18;;;;;;;15.88;65.45;101848.09;4905113;29;20062;-79
2022/10/31 05:25:20;;;;;;;12.77;6.00;;;;;;;15.71;64.99;101828.22;4920209;29;20051;-79
2022/10/31 05:27:48;;;;;;;11.65;6.30;;;;;;;15.62;65.49;101810.28;4915479;28;20227;-80
2022/10/31 05:30:18;;;;;;;11.57;6.30;;;;;;;15.60;65.41;101804.22;4935015;28;20059;-79
2022/10/31 05:32:51;;;;;;;8.60;6.03;;;;;;;15.89;65.63;101863.16;4920332;29;20059;-79
2022/10/31 05:35:21;;;;;;;11.20;6.40;;;;;;;15.13;65.07;101740.66;4919940;28;20051;-79
2022/10/31 05:37:48;;;;;;;14.10;6.68;;;;;;;15.80;64.73;101847.94;4920541;29;20086;-80
2022/10/31 05:40:17;;;;;;;11.73;6.57;;;;;;;15.75;65.20;101850.19;4924678;28;20504;-79
2022/10/31 05:42:49;;;;;;;9.27;5.70;;;;;;;15.81;65.14;101863.88;4925239;29;20437;-77
2022/10/31 05:45:21;;;;;;;11.73;6.47;;;;;;;15.50;65.43;101820.28;4923188;29;20509;-80
2022/10/31 05:47:56;;;;;;;12.77;6.45;;;;;;;15.73;65.26;101861.06;4923898;28;20749;-79
2022/10/31 05:50:24;;;;;;;11.25;6.03;;;;;;;15.74;65.50;101854.72;4955144;28;20082;-76
2022/10/31 05:52:59;;;;;;;12.63;7.18;;;;;;;15.68;65.34;101843.66;4922578;29;20682;-79
2022/10/31 05:55:27;;;;;;;10.15;6.63;;;;;;;15.69;65.01;101851.56;4923225;29;20600;-79
2022/10/31 05:57:57;;;;;;;10.35;5.72;;;;;;;15.72;65.36;101861.19;4923476;29;20696;-80
2022/10/31 06:00:26;;;;;;;16.05;6.35;;;;;;;15.56;65.21;101829.59;4923321;29;20154;-79
2022/10/31 06:03:01;;;;;;;12.52;6.32;;;;;;;15.80;65.32;101880.06;4922805;28;20338;-79
2022/10/31 06:05:29;;;;;;;12.43;5.80;;;;;;;15.75;65.54;101871.59;4923088;28;20082;-80
2022/10/31 06:07:56;;;;;;;19.67;11.05;;;;;;;15.86;65.84;101878.69;4922119;29;20058;-80
2022/10/31 06:10:27;;;;;;;15.93;10.32;;;;;;;15.62;65.48;101838.88;4919776;29;20629;-79
2022/10/31 06:12:54;;;;;;;21.35;9.05;;;;;;;15.64;66.03;101836.94;4919578;29;20253;-80
2022/10/31 06:15:21;;;;;;;11.70;7.35;;;;;;;15.73;66.19;101874.44;4923793;28;20522;-80
2022/10/31 06:18:03;;;;;;;12.10;6.65;;;;;;;15.78;65.75;101877.53;4923205;29;20047;-78
2022/10/31 06:20:30;;;;;;;11.70;6.30;;;;;;;15.79;65.32;101883.75;4923430;29;20055;-79
2022/10/31 06:22:59;;;;;;;20.13;6.15;;;;;;;15.57;65.73;101850.84;4912895;29;20142;-79
2022/10/31 06:25:27;;;;;;;12.52;5.93;;;;;;;14.98;65.45;101744.72;4927840;28;20055;-80
2022/10/31 06:27:55;;;;;;;11.65;6.32;;;;;;;15.62;65.54;101854.94;4926808;28;20054;-79
2022/10/31 06:30:25;;;;;;;11.43;6.78;;;;;;;15.79;65.10;101886.41;4928548;29;20074;-79
2022/10/31 06:32:52;;;;;;;14.30;6.28;;;;;;;15.80;65.64;101883.63;4938967;28;20387;-80
2022/10/31 06:35:19;;;;;;;14.85;7.25;;;;;;;15.95;65.92;101892.06;4942444;29;20121;-81
2022/10/31 06:37:53;;;;;;;11.00;7.00;;;;;;;15.88;65.61;101866.84;4943123;29;20051;-80
2022/10/31 06:40:20;;;;;;;17.30;6.88;;;;;;;15.45;65.67;101792.25;4930271;28;20051;-79
2022/10/31 06:42:47;;;;;;;12.88;6.18;;;;;;;16.13;65.79;101902.09;4924966;28;20058;-80
2022/10/31 06:45:14;;;;;;;15.40;6.57;;;;;;;15.96;65.65;101864.28;4918653;29;20346;-78
2022/10/31 06:47:41;;;;;;;18.25;7.28;;;;;;;16.08;65.63;101877.56;4917672;29;20063;-79
2022/10/31 06:50:30;;;;;;;10.25;6.30;;;;;;;16.06;65.69;101869.66;4918565;28;20047;-79
2022/10/31 06:52:58;;;;;;;14.15;5.95;;;;;;;16.07;65.74;101863.31;4911398;29;20051;-80
2022/10/31 06:55:28;;;;;;;13.48;6.20;;;;;;;16.18;65.16;101873.03;4922295;29;20265;-81
2022/10/31 06:57:57;;;;;;;13.00;6.80;;;;;;;16.39;65.37;101908.56;4924693;29;20516;-80
2022/10/31 07:00:30;;;;;;;15.77;5.88;;;;;;;16.42;65.01;101910.09;4921907;29;20306;-78
2022/10/31 07:03:05;;;;;;;10.77;5.82;;;;;;;16.36;65.11;101895.47;4920361;28;20059;-79
2022/10/31 07:05:33;;;;;;;9.82;5.35;;;;;;;16.28;64.48;101873.03;4922650;29;20063;-79
2022/10/31 07:08:02;;;;;;;14.70;5.95;;;;;;;16.39;64.56;101884.44;4920957;28;20063;-78
2022/10/31 07:10:32;;;;;;;9.43;5.50;;;;;;;16.12;65.18;101834.28;4917947;29;20497;-80
2022/10/31 07:13:10;;;;;;;11.63;5.63;;;;;;;16.28;65.20;101857.78;4926428;29;20055;-79
2022/10/31 07:15:41;;;;;;;;;;;;;;;16.62;65.22;101918.97;4935332;28;20186;-80
2022/10/31 07:18:10;;;;;;;14.10;6.10;;;;;;;16.50;64.93;101887.94;4922270;28;19977;-80
2022/10/31 07:20:37;;;;;;;11.77;5.72;;;;;;;16.58;65.08;101907.69;4921349;29;20142;-80
2022/10/31 07:23:05;;;;;;;12.50;6.07;;;;;;;16.78;64.10;101913.00;4930963;28;20081;-79
2022/10/31 07:25:33;;;;;;;12.45;5.93;;;;;;;16.85;64.23;101915.00;4930843;29;20536;-79
2022/10/31 07:28:00;;;;;;;13.27;5.72;;;;;;;16.92;63.73;101919.75;4947715;28;20074;-77
2022/10/31 07:30:27;;;;;;;15.90;5.95;;;;;;;16.97;63.72;101918.34;4947585;28;20050;-79
2022/10/31 07:32:55;;;;;;;8.25;5.20;;;;;;;16.92;63.80;101909.91;4949400;28;20629;-79
2022/10/31 07:35:27;;;;;;;13.18;5.55;;;;;;;16.86;62.97;101884.50;4945107;28;20141;-80
2022/10/31 07:37:54;;;;;;;11.88;5.53;;;;;;;16.94;62.95;101891.78;4937775;28;20588;-79
2022/10/31 07:40:22;;;;;;;10.77;5.75;;;;;;;17.25;61.82;101923.75;4930745;28;20082;-78
2022/10/31 07:42:52;;;;;;;14.77;6.22;;;;;;;17.25;62.95;101918.38;4914824;29;20347;-78
2022/10/31 07:45:20;;;;;;;15.20;6.88;;;;;;;17.23;62.28;101907.81;4928808;28;20047;-79
2022/10/31 07:47:49;;;;;;;14.30;6.32;;;;;;;17.36;62.25;101917.34;4931527;28;20439;-80
2022/10/31 07:50:21;;;;;;;15.55;6.85;;;;;;;17.10;61.86;101859.00;4944987;28;20149;-80
2022/10/31 07:53:05;;;;;;;16.42;5.63;;;;;;;17.53;62.85;101919.22;4932108;28;20196;-79
2022/10/31 07:55:38;;;;;;;17.95;6.85;;;;;;;17.58;62.62;101927.69;4932829;28;20051;-79
2022/10/31 07:58:11;;;;;;;20.85;7.22;;;;;;;17.63;62.18;101925.38;4933278;29;20215;-79
2022/10/31 08:00:40;;;;;;;13.00;6.43;;;;;;;17.81;61.12;101929.97;4946414;28;20058;-80
2022/10/31 08:03:09;;;;;;;16.10;7.50;;;;;;;17.76;60.27;101906.22;4924552;28;20063;-79
2022/10/31 08:05:37;;;;;;;15.25;6.78;;;;;;;17.93;59.97;101916.16;4921905;29;20063;-80
2022/10/31 08:08:05;;;;;;;17.60;6.88;;;;;;;17.73;59.44;101860.88;4901805;29;20324;-79
2022/10/31 08:10:33;;;;;;;14.32;6.70;;;;;;;18.22;59.19;101919.63;4915070;29;20486;-79
2022/10/31 08:13:06;;;;;;;15.73;7.45;;;;;;;18.29;58.82;101901.88;4916298;29;20215;-81
2022/10/31 08:15:36;;;;;;;17.10;6.82;;;;;;;18.18;58.45;101883.28;4902529;29;20644;-79
2022/10/31 08:18:04;;;;;;;12.77;6.55;;;;;;;18.31;58.68;101902.56;4905988;29;20051;-80
2022/10/31 08:20:32;;;;;;;18.17;7.05;;;;;;;18.38;58.03;101892.03;4935433;28;20654;-80
2022/10/31 08:23:01;;;;;;;11.00;6.00;;;;;;;18.67;57.71;101932.09;4921861;28;20806;-80
2022/10/31 08:25:31;;;;;;;13.90;6.78;;;;;;;18.53;56.92;101895.84;4917339;29;20059;-81
2022/10/31 08:28:05;;;;;;;17.95;5.82;;;;;;;18.83;57.01;101931.38;4916243;29;20810;-81
2022/10/31 08:30:37;;;;;;;14.85;6.15;;;;;;;18.87;57.00;101920.13;4897927;29;20351;-79
2022/10/31 08:33:12;;;;;;;15.05;5.57;;;;;;;18.94;56.84;101923.03;4918772;29;20066;-80
2022/10/31 08:35:42;;;;;;;12.90;5.85;;;;;;;18.68;56.32;101863.84;4918772;29;20058;-81
2022/10/31 08:38:12;;;;;;;12.33;6.60;;;;;;;18.99;56.10;101896.50;4917914;29;20055;-80
2022/10/31 08:40:40;;;;;;;12.63;5.97;;;;;;;19.14;55.13;101902.13;4919665;28;20058;-81
2022/10/31 08:43:15;;;;;;;14.82;6.35;;;;;;;18.48;55.14;101775.31;4920991;29;20055;-80
2022/10/31 08:45:47;;;;;;;22.25;6.35;;;;;;;19.24;54.54;101875.91;4920018;28;20146;-81
2022/10/31 08:48:16;;;;;;;13.70;6.22;;;;;;;19.58;54.30;101912.72;4919439;28;20157;-79
2022/10/31 08:50:44;;;;;;;13.05;7.50;;;;;;;19.69;54.81;101935.84;4938726;28;20507;-81
2022/10/31 08:53:14;;;;;;;14.10;7.07;;;;;;;19.61;54.68;101913.25;4939299;28;20497;-80
2022/10/31 08:55:42;;;;;;;13.07;6.38;;;;;;;19.75;54.33;101936.03;4938483;28;20484;-80
2022/10/31 08:58:12;;;;;;;13.23;6.95;;;;;;;19.83;54.28;101930.66;4938894;28;20169;-79
2022/10/31 09:00:43;;;;;;;20.58;9.43;;;;;;;19.46;54.17;101855.63;4938926;28;20589;-80
2022/10/31 09:03:13;;;;;;;17.73;9.15;;;;;;;20.01;54.72;101935.91;4937903;28;20059;-81
2022/10/31 09:05:40;;;;;;;22.83;8.57;;;;;;;20.22;53.88;101926.50;4936357;28;20124;-81
2022/10/31 09:08:11;;;;;;;15.50;8.55;;;;;;;20.30;53.79;101920.28;4939776;28;20462;-80
2022/10/31 09:10:43;;;;;;;16.83;8.65;;;;;;;20.42;54.45;101921.63;4928930;28;20169;-80
2022/10/31 09:13:18;;;;;;;18.35;9.38;;;;;;;20.53;53.68;101915.88;4903187;29;20067;-81
2022/10/31 09:15:48;;;;;;;20.10;10.48;;;;;;;20.52;53.25;101884.53;4902996;29;20377;-79
2022/10/31 09:18:21;;;;;;;20.60;10.27;;;;;;;20.81;52.48;101921.78;4912706;28;20058;-81
2022/10/31 09:20:49;;;;;;;16.88;9.38;;;;;;;20.92;52.98;101912.44;4929002;28;20445;-81
2022/10/31 09:23:19;;;;;;;25.25;8.93;;;;;;;21.09;52.40;101914.13;4929985;28;20059;-80
2022/10/31 09:25:48;;;;;;;22.60;8.80;;;;;;;20.80;52.26;101857.16;4941547;28;20051;-81
2022/10/31 09:28:20;;;;;;;16.60;8.43;;;;;;;21.22;51.92;101901.91;4935544;28;20248;-79
2022/10/31 09:30:49;;;;;;;12.52;7.88;;;;;;;21.42;51.85;101919.41;4920723;29;20114;-81
2022/10/31 09:33:16;;;;;;;15.55;8.63;;;;;;;21.29;50.97;101886.69;4920774;29;20063;-83
2022/10/31 09:35:43;;;;;;;19.17;8.25;;;;;;;21.61;50.55;101917.28;4927238;28;20050;-83
2022/10/31 09:38:23;;;;;;;15.90;7.25;;;;;;;21.61;50.27;101898.38;4920824;28;20458;-83
2022/10/31 09:41:05;;;;;;;17.42;6.80;;;;;;;21.93;49.21;101927.88;4922058;28;20051;-82
2022/10/31 09:44:07;;;;;;;11.82;6.90;;;;;;;22.14;47.73;101915.59;4921394;29;20166;-80
2022/10/31 09:46:54;;;;;;;16.73;6.47;;;;;;;22.17;48.67;101923.34;4921229;29;20051;-81
2022/10/31 09:49:52;;;;;;;14.70;7.30;;;;;;;22.22;47.84;101915.56;4933668;28;20051;-81
2022/10/31 09:52:24;;;;;;;10.65;7.57;;;;;;;22.20;48.31;101901.38;4940177;28;20172;-81
2022/10/31 09:54:59;;;;;;;18.25;8.25;;;;;;;22.52;48.47;101926.44;4939511;28;20054;-82
2022/10/31 09:57:31;;;;;;;14.30;7.60;;;;;;;22.48;48.14;101892.69;4941956;28;20164;-82
2022/10/31 09:59:58;;;;;;;17.98;8.05;;;;;;;22.63;47.67;101893.53;4936793;28;20126;-82
2022/10/31 10:02:46;;;;;;;16.70;8.18;;;;;;;22.60;47.33;101869.56;4940014;28;20058;-83
2022/10/31 10:05:34;;;;;;;15.27;7.90;;;;;;;22.86;46.04;101889.91;4942548;28;20058;-80
2022/10/31 10:08:16;;;;;;;13.00;7.38;;;;;;;23.16;46.97;101917.88;4939674;28;20357;-79
2022/10/31 10:11:14;;;;;;;20.27;7.90;;;;;;;23.30;46.41;101908.84;4936724;28;20080;-79
2022/10/31 10:13:59;;;;;;;11.13;7.28;;;;;;;23.51;45.76;101913.50;4924375;29;20066;-78
2022/10/31 10:16:45;;;;;;;12.15;7.90;;;;;;;23.65;45.50;101915.34;4925095;29;20047;-80
2022/10/31 10:19:31;;;;;;;13.60;8.18;;;;;;;23.86;44.63;101919.13;4936248;28;20741;-80
2022/10/31 10:22:11;;;;;;;21.83;9.02;;;;;;;23.91;44.90;101916.72;4927491;29;20051;-78
2022/10/31 10:25:07;;;;;;;17.02;8.05;;;;;;;23.91;45.49;101915.84;4927322;28;20055;-78
2022/10/31 10:27:49;;;;;;;23.58;9.40;;;;;;;24.02;45.21;101910.75;4932166;28;20514;-79
2022/10/31 10:30:50;;;;;;;22.05;9.77;;;;;;;24.13;45.62;101905.81;4931403;29;20154;-79
2022/10/31 10:33:28;;;;;;;;;;;;;;;24.25;45.16;101904.28;4935807;28;20179;-77
2022/10/31 10:36:01;;;;;;;22.60;10.27;;;;;;;24.43;44.56;101903.81;4938364;29;19926;-79
2022/10/31 10:38:50;;;;;;;16.10;9.75;;;;;;;24.51;44.26;101899.09;4947896;29;20067;-78
2022/10/31 10:41:31;;;;;;;17.30;9.75;;;;;;;24.41;44.44;101866.00;4943476;29;20101;-78
2022/10/31 10:44:05;;;;;;;26.35;10.70;;;;;;;24.67;44.41;101889.81;4936639;29;20159;-79
2022/10/31 10:49:56;;;;;;;20.27;9.57;;;;;;;24.94;44.63;101896.25;4945847;28;20498;-78
2022/10/31 10:52:49;;;;;;;19.80;9.27;;;;;;;25.00;44.00;101888.31;4952374;28;20043;-79
2022/10/31 10:55:25;;;;;;;27.02;10.85;;;;;;;24.61;43.92;101840.91;4952749;28;20434;-81
2022/10/31 10:58:00;;;;;;;21.98;11.18;;;;;;;24.87;44.28;101889.94;4952177;28;20051;-80
2022/10/31 11:00:30;;;;;;;29.42;11.10;;;;;;;24.13;44.54;101813.59;4952741;28;20576;-80
2022/10/31 11:03:04;;;;;;;28.50;12.90;;;;;;;23.45;44.80;101717.28;4953439;28;20051;-80
2022/10/31 11:05:52;;;;;;;18.40;10.35;;;;;;;24.09;44.89;101848.44;4955088;28;20139;-80
2022/10/31 11:08:32;;;;;;;20.92;10.05;;;;;;;23.75;45.45;101803.06;4954846;28;20058;-81
2022/10/31 11:11:03;;;;;;;21.15;9.68;;;;;;;23.56;45.75;101794.50;4945310;28;20103;-80
2022/10/31 11:13:32;;;;;;;18.85;9.73;;;;;;;23.90;46.36;101871.63;4933698;29;20057;-80
2022/10/31 11:16:13;;;;;;;23.33;12.65;;;;;;;23.74;46.13;101845.63;4934091;29;20050;-80
2022/10/31 11:18:44;;;;;;;23.97;10.97;;;;;;;23.69;46.39;101853.47;4944703;28;20454;-80
2022/10/31 11:21:25;;;;;;;24.92;9.60;;;;;;;23.67;46.56;101848.22;4935590;29;20063;-79
2022/10/31 11:24:02;;;;;;;19.33;9.80;;;;;;;23.59;47.35;101850.19;4928698;29;20313;-80
2022/10/31 11:26:30;;;;;;;18.15;10.68;;;;;;;23.57;47.51;101850.41;4934801;29;20781;-79
2022/10/31 11:28:58;;;;;;;24.25;11.93;;;;;;;22.65;48.08;101703.88;4926872;29;20469;-81
2022/10/31 11:31:27;;;;;;;16.65;10.05;;;;;;;23.38;47.88;101840.19;4933482;29;20186;-80
2022/10/31 11:34:07;;;;;;;19.73;11.18;;;;;;;23.08;47.92;101794.19;4941135;28;20079;-79
2022/10/31 11:36:39;;;;;;;17.42;10.63;;;;;;;23.38;47.45;101841.03;4935205;28;20349;-81
2022/10/31 11:39:17;;;;;;;18.55;10.73;;;;;;;23.12;47.57;101791.97;4911398;29;20159;-79
2022/10/31 11:41:45;;;;;;;20.33;11.43;;;;;;;23.34;47.48;101838.88;4910551;29;20086;-80
2022/10/31 11:44:15;;;;;;;23.20;11.02;;;;;;;;;;4917811;29;20047;-80
2022/10/31 11:46:55;;;;;;;19.60;9.40;;;;;;;23.30;47.55;101832.16;4916432;29;20082;-79